Time;durP1;ratioP1;P1;durP2;ratioP2;P2;SDS_P1;SDS_P2;PMS_P1;PMS_P2;Temp;Humidity;BMP_temperature;BMP_pressure;BME280_temperature;BME280_humidity;BME280_pressure;Samples;Min_cycle;Max_cycle;Signal;HPM_P1;HPM_P2
2023/12/21 00:00:58;;;;;;;1.60;0.70;;;5.80;7.30;;;;;;5031261;28;20690;-69
2023/12/21 00:03:23;;;;;;;2.10;0.70;;;5.80;6.60;;;;;;5064763;28;20183;-69
2023/12/21 00:05:49;;;;;;;2.00;0.63;;;5.90;7.00;;;;;;5032726;28;20519;-70
2023/12/21 00:08:14;;;;;;;1.50;0.50;;;5.90;7.00;;;;;;5032234;28;20211;-69
2023/12/21 00:10:40;;;;;;;1.50;0.50;;;5.90;7.00;;;;;;5065368;28;20199;-68
2023/12/21 00:13:06;;;;;;;1.90;0.73;;;5.90;7.00;;;;;;5033520;28;20258;-69
2023/12/21 00:15:31;;;;;;;1.70;0.60;;;5.90;6.70;;;;;;5032522;28;20479;-69
2023/12/21 00:17:57;;;;;;;1.40;0.40;;;5.90;6.90;;;;;;5033077;28;20191;-69
2023/12/21 00:20:23;;;;;;;1.47;0.40;;;6.00;7.70;;;;;;5032071;28;20674;-69
2023/12/21 00:22:48;;;;;;;4.90;1.07;;;5.90;7.10;;;;;;5032531;28;20544;-70
2023/12/21 00:25:14;;;;;;;1.60;0.53;;;5.90;7.10;;;;;;5032196;28;20217;-69
2023/12/21 00:27:39;;;;;;;1.83;0.60;;;6.00;7.20;;;;;;5030750;28;20310;-70
2023/12/21 00:30:06;;;;;;;1.60;0.50;;;6.00;7.10;;;;;;5031958;28;20202;-69
2023/12/21 00:32:31;;;;;;;2.70;0.80;;;5.90;7.00;;;;;;5030089;28;20189;-69
2023/12/21 00:35:00;;;;;;;2.10;0.60;;;6.00;7.50;;;;;;5031951;28;20418;-69
2023/12/21 00:37:26;;;;;;;1.50;0.70;;;5.90;7.10;;;;;;5030690;28;20217;-68
2023/12/21 00:39:51;;;;;;;1.90;0.50;;;5.90;7.20;;;;;;5031774;28;20477;-69
2023/12/21 00:42:17;;;;;;;1.80;0.70;;;5.90;7.20;;;;;;5032180;28;20190;-69
2023/12/21 00:44:42;;;;;;;1.50;0.50;;;5.90;7.30;;;;;;5030404;28;20705;-68
2023/12/21 00:47:08;;;;;;;1.67;0.50;;;5.90;7.50;;;;;;5031997;28;20684;-69
2023/12/21 00:49:34;;;;;;;2.00;0.60;;;6.00;7.90;;;;;;5030931;28;20182;-69
2023/12/21 00:52:00;;;;;;;1.50;0.53;;;6.00;7.90;;;;;;5030881;28;20422;-68
2023/12/21 00:54:25;;;;;;;1.80;0.70;;;6.00;9.00;;;;;;5032006;28;20568;-68
2023/12/21 00:56:51;;;;;;;3.00;0.60;;;5.90;8.50;;;;;;5032177;28;20218;-68
2023/12/21 00:59:17;;;;;;;1.50;0.50;;;5.90;9.20;;;;;;5031858;28;20613;-68
2023/12/21 01:01:42;;;;;;;1.73;0.47;;;5.90;9.70;;;;;;5038224;23;20530;-72
2023/12/21 01:04:08;;;;;;;1.40;0.50;;;5.90;9.30;;;;;;5011918;28;20172;-72
2023/12/21 01:06:36;;;;;;;1.63;0.60;;;6.00;9.30;;;;;;4993931;28;20203;-72
2023/12/21 01:09:03;;;;;;;2.10;0.70;;;6.00;9.80;;;;;;5011674;28;20204;-71
2023/12/21 01:11:28;;;;;;;1.60;0.50;;;6.00;9.60;;;;;;4994283;28;20451;-71
2023/12/21 01:13:54;;;;;;;1.70;0.60;;;6.00;9.70;;;;;;5011791;28;20486;-71
2023/12/21 01:16:19;;;;;;;1.60;0.60;;;6.00;10.30;;;;;;5011717;28;20176;-71
2023/12/21 01:18:46;;;;;;;3.40;0.60;;;6.00;10.30;;;;;;5011406;28;20168;-71
2023/12/21 01:21:11;;;;;;;2.07;0.50;;;6.00;10.50;;;;;;5011738;28;20195;-71
2023/12/21 01:23:37;;;;;;;1.50;0.60;;;6.00;10.70;;;;;;5011604;28;20765;-71
2023/12/21 01:26:03;;;;;;;1.43;0.40;;;6.00;11.00;;;;;;5011604;28;20177;-71
2023/12/21 01:28:28;;;;;;;2.23;0.60;;;6.00;10.80;;;;;;5011405;28;20263;-71
2023/12/21 01:30:54;;;;;;;1.40;0.40;;;6.00;11.30;;;;;;5011435;28;20204;-71
2023/12/21 01:33:19;;;;;;;1.60;0.50;;;6.00;11.10;;;;;;4993535;28;20188;-72
2023/12/21 01:35:45;;;;;;;1.80;0.67;;;6.00;11.40;;;;;;5011428;28;20664;-72
2023/12/21 01:38:10;;;;;;;1.70;0.40;;;6.10;11.20;;;;;;5011252;28;20223;-72
2023/12/21 01:40:36;;;;;;;1.77;0.60;;;6.00;11.50;;;;;;5011310;28;20275;-72
2023/12/21 01:43:01;;;;;;;2.00;0.87;;;6.00;12.00;;;;;;4993933;28;20177;-72
2023/12/21 01:45:27;;;;;;;1.57;0.50;;;6.00;12.30;;;;;;4995052;28;20187;-72
2023/12/21 01:47:52;;;;;;;1.60;0.50;;;6.00;12.30;;;;;;5015055;28;20212;-71
2023/12/21 01:50:18;;;;;;;1.60;0.50;;;6.10;12.30;;;;;;4997376;28;20196;-70
2023/12/21 01:52:45;;;;;;;1.80;0.50;;;6.10;12.30;;;;;;5015550;28;20587;-70
2023/12/21 01:55:12;;;;;;;2.27;0.60;;;6.00;12.30;;;;;;5014793;28;20425;-70
2023/12/21 01:57:38;;;;;;;1.50;0.50;;;6.00;12.30;;;;;;5014942;28;20415;-70
2023/12/21 02:00:04;;;;;;;1.90;0.60;;;6.10;12.30;;;;;;5014526;28;20450;-71
2023/12/21 02:02:29;;;;;;;1.80;0.50;;;6.10;12.30;;;;;;5014978;28;20791;-70
2023/12/21 02:04:55;;;;;;;1.40;0.50;;;6.10;12.30;;;;;;5014760;28;20419;-70
2023/12/21 02:07:21;;;;;;;1.60;0.40;;;6.10;12.30;;;;;;5014585;28;20207;-71
2023/12/21 02:09:47;;;;;;;1.50;0.50;;;6.10;12.80;;;;;;5014556;28;20423;-70
2023/12/21 02:12:12;;;;;;;1.40;0.40;;;6.10;13.10;;;;;;5014792;28;20264;-71
2023/12/21 02:14:38;;;;;;;1.60;0.50;;;6.10;12.70;;;;;;5014638;28;20168;-70
2023/12/21 02:17:08;;;;;;;1.70;0.50;;;6.10;12.30;;;;;;4996828;28;20180;-70
2023/12/21 02:19:34;;;;;;;1.40;0.50;;;6.20;12.40;;;;;;5014455;28;20254;-70
2023/12/21 02:22:01;;;;;;;1.77;0.60;;;6.10;12.30;;;;;;5014450;28;20538;-71
2023/12/21 02:24:27;;;;;;;1.80;0.80;;;6.20;12.40;;;;;;5014468;28;20180;-70
2023/12/21 02:26:52;;;;;;;2.03;0.60;;;6.20;12.40;;;;;;5014360;28;20455;-70
2023/12/21 02:29:18;;;;;;;1.50;0.50;;;6.30;12.40;;;;;;5014502;28;20191;-70
2023/12/21 02:31:43;;;;;;;1.47;0.40;;;6.30;12.00;;;;;;5014337;28;20201;-70
2023/12/21 02:34:09;;;;;;;1.50;0.60;;;6.30;11.70;;;;;;5014373;28;20175;-70
2023/12/21 02:36:35;;;;;;;1.50;0.50;;;6.30;11.60;;;;;;5014204;28;20173;-70
2023/12/21 02:39:00;;;;;;;1.40;0.40;;;6.30;11.50;;;;;;5013907;28;20176;-70
2023/12/21 02:41:26;;;;;;;1.50;0.40;;;6.40;11.40;;;;;;5014223;28;20494;-70
2023/12/21 02:43:51;;;;;;;1.40;0.40;;;6.40;11.60;;;;;;5014191;28;20197;-71
2023/12/21 02:46:19;;;;;;;1.70;0.70;;;6.40;11.50;;;;;;5014007;28;20204;-71
2023/12/21 02:48:45;;;;;;;2.30;0.70;;;6.40;11.70;;;;;;5013743;28;20213;-71
2023/12/21 02:51:10;;;;;;;1.40;0.40;;;6.40;11.20;;;;;;5013732;28;20524;-70
2023/12/21 02:53:36;;;;;;;1.40;0.40;;;6.50;11.20;;;;;;5014033;28;20185;-70
2023/12/21 02:56:02;;;;;;;1.50;0.50;;;6.50;11.00;;;;;;5013441;28;20519;-71
2023/12/21 02:58:28;;;;;;;1.43;0.50;;;6.50;10.80;;;;;;5013731;28;20264;-71
2023/12/21 03:00:53;;;;;;;1.40;0.40;;;6.50;10.30;;;;;;5013674;28;20463;-70
2023/12/21 03:03:19;;;;;;;1.40;0.40;;;6.50;10.40;;;;;;5013859;28;20176;-71
2023/12/21 03:05:44;;;;;;;1.60;0.43;;;6.50;10.60;;;;;;5013628;28;20184;-71
2023/12/21 03:08:10;;;;;;;1.97;0.50;;;6.60;10.20;;;;;;4995754;28;20236;-71
2023/12/21 03:10:35;;;;;;;1.53;0.50;;;6.60;10.20;;;;;;5013444;28;20542;-70
2023/12/21 03:13:02;;;;;;;1.40;0.40;;;6.60;10.20;;;;;;5013396;28;20180;-70
2023/12/21 03:15:27;;;;;;;1.43;0.50;;;6.60;10.20;;;;;;5013401;28;20259;-70
2023/12/21 03:17:53;;;;;;;2.10;0.63;;;6.60;10.40;;;;;;4995975;28;20506;-70
2023/12/21 03:20:18;;;;;;;1.50;0.50;;;6.60;10.10;;;;;;5013263;28;20200;-71
2023/12/21 03:22:44;;;;;;;1.50;0.50;;;6.60;10.30;;;;;;5013426;28;20185;-70
2023/12/21 03:25:09;;;;;;;1.50;0.50;;;6.70;9.80;;;;;;5013130;28;20282;-71
2023/12/21 03:27:36;;;;;;;1.80;0.50;;;6.70;9.90;;;;;;5016359;28;20200;-71
2023/12/21 03:30:02;;;;;;;1.50;0.67;;;6.70;10.30;;;;;;5022205;28;20756;-72
2023/12/21 03:32:27;;;;;;;1.73;0.50;;;6.70;9.90;;;;;;5021851;28;20416;-71
2023/12/21 03:34:53;;;;;;;1.70;0.50;;;6.70;9.80;;;;;;5014736;28;20668;-71
2023/12/21 03:37:18;;;;;;;1.40;0.40;;;6.70;10.10;;;;;;5013190;28;20263;-71
2023/12/21 03:39:44;;;;;;;1.43;0.50;;;6.70;10.30;;;;;;5012881;28;20195;-71
2023/12/21 03:42:09;;;;;;;1.40;0.40;;;6.70;10.10;;;;;;5013205;28;20201;-71
2023/12/21 03:44:35;;;;;;;1.40;0.40;;;6.70;10.30;;;;;;5013090;28;20652;-71
2023/12/21 03:47:01;;;;;;;2.73;0.50;;;6.70;10.20;;;;;;5013121;28;20287;-71
2023/12/21 03:49:28;;;;;;;1.50;0.50;;;6.70;10.00;;;;;;5012514;28;20447;-71
2023/12/21 03:51:57;;;;;;;1.40;0.40;;;6.70;10.00;;;;;;5012790;28;20201;-70
2023/12/21 03:54:23;;;;;;;1.60;0.43;;;6.70;10.00;;;;;;5012764;28;20412;-70
2023/12/21 03:56:48;;;;;;;1.70;0.40;;;6.70;9.70;;;;;;5012680;28;20423;-70
2023/12/21 03:59:14;;;;;;;1.37;0.40;;;6.70;9.80;;;;;;5012511;28;20207;-71
2023/12/21 04:01:39;;;;;;;1.63;0.50;;;6.70;9.70;;;;;;5012485;28;20216;-71
2023/12/21 04:04:05;;;;;;;1.50;0.50;;;6.70;10.00;;;;;;5012701;28;20217;-71
2023/12/21 04:06:32;;;;;;;1.40;0.40;;;6.70;10.00;;;;;;4994931;28;20686;-71
2023/12/21 04:08:58;;;;;;;1.40;0.40;;;6.70;10.00;;;;;;5011632;28;20180;-70
2023/12/21 04:11:23;;;;;;;1.40;0.40;;;6.80;10.10;;;;;;5012475;28;20427;-70
2023/12/21 04:13:49;;;;;;;1.40;0.40;;;6.70;9.90;;;;;;5012318;28;20263;-71
2023/12/21 04:16:15;;;;;;;1.70;0.50;;;6.70;10.00;;;;;;5012438;28;20567;-71
2023/12/21 04:18:40;;;;;;;1.40;0.40;;;6.70;10.30;;;;;;4994542;28;20513;-71
2023/12/21 04:21:07;;;;;;;1.40;0.40;;;6.70;10.10;;;;;;5012430;28;20188;-71
2023/12/21 04:23:33;;;;;;;1.40;0.40;;;6.70;10.10;;;;;;5012492;28;20172;-71
2023/12/21 04:25:58;;;;;;;1.40;0.40;;;6.70;10.30;;;;;;5012503;28;20511;-71
2023/12/21 04:28:24;;;;;;;1.40;0.40;;;6.70;10.20;;;;;;5012648;28;20554;-71
2023/12/21 04:30:50;;;;;;;1.53;0.50;;;6.70;10.90;;;;;;5012734;28;20249;-70
2023/12/21 04:33:16;;;;;;;1.60;0.40;;;6.80;10.60;;;;;;5012624;28;20223;-71
2023/12/21 04:35:45;;;;;;;1.50;0.50;;;6.70;10.70;;;;;;5013127;28;20686;-70
2023/12/21 04:38:12;;;;;;;1.40;0.40;;;6.70;10.80;;;;;;4994639;28;20436;-71
2023/12/21 04:40:37;;;;;;;1.40;0.40;;;6.80;10.80;;;;;;4994997;28;20863;-71
2023/12/21 04:43:04;;;;;;;1.40;0.40;;;6.70;10.90;;;;;;5012860;28;20451;-71
2023/12/21 04:45:29;;;;;;;1.90;0.50;;;6.70;10.90;;;;;;5012987;28;20177;-71
2023/12/21 04:47:55;;;;;;;1.40;0.40;;;6.80;10.90;;;;;;5013391;28;20460;-71
2023/12/21 04:50:21;;;;;;;1.40;0.40;;;6.80;11.50;;;;;;5012840;28;20201;-71
2023/12/21 04:52:47;;;;;;;1.60;0.50;;;6.80;10.80;;;;;;5012270;28;20544;-70
2023/12/21 04:55:12;;;;;;;1.40;0.40;;;6.80;10.90;;;;;;5012080;28;20230;-71
2023/12/21 04:57:38;;;;;;;1.43;0.47;;;6.80;10.60;;;;;;5012049;28;20466;-70
2023/12/21 05:00:08;;;;;;;1.40;0.43;;;6.80;10.90;;;;;;5011534;28;20939;-70
2023/12/21 05:02:34;;;;;;;1.60;0.50;;;6.80;10.80;;;;;;5011737;28;20188;-71
2023/12/21 05:05:00;;;;;;;1.40;0.40;;;6.80;10.80;;;;;;5011918;28;20430;-70
2023/12/21 05:07:26;;;;;;;1.50;0.40;;;6.90;10.60;;;;;;5011900;28;20558;-70
2023/12/21 05:09:51;;;;;;;1.50;0.50;;;6.90;10.60;;;;;;5011702;28;20185;-70
2023/12/21 05:12:17;;;;;;;1.40;0.40;;;6.90;10.50;;;;;;5011873;28;20586;-70
2023/12/21 05:14:43;;;;;;;1.40;0.40;;;6.90;10.70;;;;;;5011930;28;20284;-70
2023/12/21 05:17:08;;;;;;;1.50;0.40;;;6.90;10.60;;;;;;5011714;28;20197;-70
2023/12/21 05:19:34;;;;;;;1.47;0.50;;;6.90;10.30;;;;;;5013626;28;20527;-70
2023/12/21 05:21:59;;;;;;;1.40;0.40;;;6.90;10.40;;;;;;5015750;28;20633;-70
2023/12/21 05:24:25;;;;;;;2.27;0.50;;;6.90;10.70;;;;;;5015550;28;20261;-71
2023/12/21 05:26:50;;;;;;;1.50;0.40;;;7.00;10.70;;;;;;5015668;28;20229;-71
2023/12/21 05:29:16;;;;;;;1.40;0.40;;;7.00;10.70;;;;;;5015425;28;20186;-70
2023/12/21 05:31:42;;;;;;;1.40;0.40;;;7.00;10.60;;;;;;5015470;28;20253;-70
2023/12/21 05:34:08;;;;;;;1.40;0.40;;;7.10;10.60;;;;;;4997862;28;20186;-70
2023/12/21 05:36:33;;;;;;;1.73;0.57;;;7.10;10.60;;;;;;5015158;28;20550;-71
2023/12/21 05:39:00;;;;;;;1.40;0.40;;;7.10;10.70;;;;;;4997434;28;20433;-71
2023/12/21 05:41:26;;;;;;;1.40;0.50;;;7.10;11.20;;;;;;5015342;28;20400;-71
2023/12/21 05:43:51;;;;;;;1.60;0.60;;;7.10;11.20;;;;;;5016015;28;20527;-71
2023/12/21 05:46:17;;;;;;;1.57;0.50;;;7.10;11.40;;;;;;5015327;28;20182;-70
2023/12/21 05:48:43;;;;;;;1.63;0.40;;;7.10;11.50;;;;;;5014841;28;20175;-71
2023/12/21 05:51:08;;;;;;;1.40;0.50;;;7.20;11.80;;;;;;5015541;28;20242;-71
2023/12/21 05:53:34;;;;;;;2.23;1.00;;;7.10;12.00;;;;;;5015381;28;20197;-71
2023/12/21 05:56:00;;;;;;;1.87;0.50;;;7.10;12.90;;;;;;4997790;28;20181;-71
2023/12/21 05:58:25;;;;;;;1.60;0.70;;;7.10;12.90;;;;;;5015478;28;20189;-70
2023/12/21 06:00:51;;;;;;;2.00;0.50;;;7.10;12.90;;;;;;5014788;28;20970;-72
2023/12/21 06:03:16;;;;;;;1.50;0.50;;;7.10;13.80;;;;;;5015151;28;20270;-71
2023/12/21 06:05:42;;;;;;;2.73;0.50;;;7.10;14.30;;;;;;4998576;28;20190;-70
2023/12/21 06:08:08;;;;;;;1.50;0.50;;;7.10;15.00;;;;;;5015170;28;20237;-71
2023/12/21 06:10:33;;;;;;;1.50;0.57;;;7.00;14.80;;;;;;5014855;28;20270;-71
2023/12/21 06:12:59;;;;;;;1.60;0.50;;;7.10;14.70;;;;;;5015585;28;20597;-71
2023/12/21 06:15:25;;;;;;;1.40;0.40;;;7.10;14.70;;;;;;5014921;28;20177;-71
2023/12/21 06:17:51;;;;;;;1.40;0.50;;;7.10;13.50;;;;;;5015134;28;20229;-71
2023/12/21 06:20:17;;;;;;;1.50;0.43;;;7.20;13.40;;;;;;5015282;28;20948;-71
2023/12/21 06:22:42;;;;;;;1.40;0.40;;;7.20;14.00;;;;;;5015039;28;20184;-70
2023/12/21 06:25:08;;;;;;;1.80;0.60;;;7.20;13.10;;;;;;5014362;28;20424;-71
2023/12/21 06:27:34;;;;;;;1.60;0.50;;;7.20;13.40;;;;;;5014736;28;20701;-70
2023/12/21 06:29:59;;;;;;;1.70;0.57;;;7.20;13.00;;;;;;5014197;28;20264;-71
2023/12/21 06:32:25;;;;;;;1.50;0.50;;;7.20;13.00;;;;;;5013892;28;20177;-71
2023/12/21 06:34:51;;;;;;;1.70;0.50;;;7.20;13.30;;;;;;5014601;28;20178;-71
2023/12/21 06:37:17;;;;;;;1.40;0.50;;;7.20;13.50;;;;;;5015435;28;20417;-71
2023/12/21 06:39:43;;;;;;;1.80;0.50;;;7.20;13.20;;;;;;5024257;28;20212;-71
2023/12/21 06:42:08;;;;;;;1.87;0.60;;;7.20;14.30;;;;;;5019932;28;20409;-71
2023/12/21 06:44:34;;;;;;;1.40;0.50;;;7.40;14.80;;;;;;5015921;28;20232;-71
2023/12/21 06:46:59;;;;;;;1.50;0.50;;;7.30;14.80;;;;;;5014487;28;20204;-71
2023/12/21 06:49:25;;;;;;;1.40;0.50;;;7.20;15.30;;;;;;4996247;28;20173;-71
2023/12/21 06:51:50;;;;;;;1.60;0.50;;;7.20;15.20;;;;;;5014050;28;20202;-71
2023/12/21 06:54:17;;;;;;;1.40;0.40;;;7.30;15.40;;;;;;4996517;28;20556;-71
2023/12/21 06:56:43;;;;;;;1.40;0.40;;;7.30;15.50;;;;;;5014055;28;20252;-71
2023/12/21 06:59:08;;;;;;;1.40;0.50;;;7.30;15.20;;;;;;5014118;28;20448;-71
2023/12/21 07:01:34;;;;;;;1.57;0.50;;;7.30;14.70;;;;;;5013845;28;20244;-71
2023/12/21 07:04:00;;;;;;;2.47;0.60;;;7.20;14.90;;;;;;5013896;28;20169;-69
2023/12/21 07:06:26;;;;;;;1.60;0.60;;;7.40;14.30;;;;;;5013973;28;20781;-69
2023/12/21 07:08:52;;;;;;;1.60;0.70;;;7.30;13.90;;;;;;5013341;28;20186;-70
2023/12/21 07:11:17;;;;;;;1.50;0.50;;;7.40;13.10;;;;;;5013565;28;20194;-70
2023/12/21 07:13:44;;;;;;;1.67;0.50;;;7.50;12.80;;;;;;5013564;28;20179;-69
2023/12/21 07:16:11;;;;;;;1.50;0.50;;;7.50;12.20;;;;;;5013812;28;20532;-67
2023/12/21 07:18:36;;;;;;;1.40;0.40;;;7.60;11.90;;;;;;5013454;28;21015;-72
2023/12/21 07:21:03;;;;;;;1.60;0.70;;;7.70;11.90;;;;;;5013770;28;20486;-70
2023/12/21 07:23:29;;;;;;;1.40;0.40;;;7.60;12.10;;;;;;5013578;28;20629;-70
2023/12/21 07:25:55;;;;;;;1.57;0.50;;;7.70;11.30;;;;;;5014012;28;20500;-72
2023/12/21 07:28:21;;;;;;;1.50;0.47;;;7.70;11.20;;;;;;5009789;28;20457;-71
2023/12/21 07:30:47;;;;;;;1.50;0.50;;;7.70;10.90;;;;;;5013955;28;20455;-71
2023/12/21 07:33:12;;;;;;;1.40;0.40;;;7.80;11.20;;;;;;4991750;28;20189;-71
2023/12/21 07:35:38;;;;;;;1.67;0.77;;;7.80;10.80;;;;;;4991700;28;20217;-70
2023/12/21 07:38:06;;;;;;;1.57;0.57;;;7.90;10.80;;;;;;5010084;28;20229;-70
2023/12/21 07:40:32;;;;;;;1.60;0.60;;;7.90;10.90;;;;;;4999122;28;20463;-71
2023/12/21 07:42:57;;;;;;;1.50;0.57;;;7.90;10.60;;;;;;4990198;28;20518;-71
2023/12/21 07:45:23;;;;;;;1.50;0.50;;;7.90;10.80;;;;;;4972952;28;20856;-71
2023/12/21 07:47:48;;;;;;;1.50;0.50;;;7.90;10.60;;;;;;4971854;28;20208;-71
2023/12/21 07:50:14;;;;;;;1.73;0.50;;;7.90;10.10;;;;;;4989193;28;20680;-71
2023/12/21 07:52:40;;;;;;;2.90;0.70;;;7.90;10.30;;;;;;4989823;28;20195;-71
2023/12/21 07:55:06;;;;;;;2.10;0.70;;;7.90;9.80;;;;;;4971647;28;20193;-70
2023/12/21 07:57:32;;;;;;;1.40;0.50;;;7.90;10.20;;;;;;4989376;28;20563;-71
2023/12/21 07:59:58;;;;;;;1.80;0.77;;;8.00;10.20;;;;;;4989223;28;20423;-70
2023/12/21 08:02:23;;;;;;;1.77;0.50;;;8.00;10.20;;;;;;4990232;28;20238;-71
2023/12/21 08:04:49;;;;;;;2.13;0.70;;;8.00;9.60;;;;;;4990886;28;20628;-71
2023/12/21 08:07:15;;;;;;;2.10;0.70;;;8.10;9.50;;;;;;4989577;28;20611;-71
2023/12/21 08:09:41;;;;;;;1.80;0.80;;;8.10;9.20;;;;;;4988462;28;20930;-71
2023/12/21 08:12:08;;;;;;;1.80;0.63;;;8.10;9.20;;;;;;4988514;28;20209;-71
2023/12/21 08:14:36;;;;;;;3.40;0.80;;;8.20;9.40;;;;;;4989410;28;20659;-71
2023/12/21 08:17:06;;;;;;;1.73;0.73;;;8.20;9.30;;;;;;4971535;28;20797;-71
2023/12/21 08:19:41;;;;;;;1.60;0.67;;;8.20;9.30;;;;;;4974344;28;21011;-71
2023/12/21 08:22:06;;;;;;;1.60;0.50;;;8.20;9.30;;;;;;4995358;28;20422;-72
2023/12/21 08:24:33;;;;;;;1.40;0.40;;;;;;;;;;4994128;28;20799;-73
2023/12/21 08:26:59;;;;;;;1.47;0.50;;;8.10;1.00;;;;;;4992695;28;20204;-73
2023/12/21 08:29:25;;;;;;;1.50;0.57;;;8.10;1.00;;;;;;4992603;28;20429;-72
2023/12/21 08:31:51;;;;;;;2.20;0.60;;;8.10;1.00;;;;;;4992915;28;20445;-72
2023/12/21 08:34:16;;;;;;;1.83;0.80;;;8.10;1.00;;;;;;4992771;28;20285;-71
2023/12/21 08:36:42;;;;;;;1.50;0.60;;;8.20;1.00;;;;;;4992532;28;20513;-72
2023/12/21 08:39:07;;;;;;;1.70;0.70;;;8.20;1.00;;;;;;4992305;28;20176;-73
2023/12/21 08:41:33;;;;;;;2.27;0.70;;;8.20;1.00;;;;;;4992682;28;20220;-72
2023/12/21 08:43:59;;;;;;;2.40;1.07;;;8.20;1.00;;;;;;4992545;28;20259;-71
2023/12/21 08:46:24;;;;;;;1.60;0.57;;;8.20;1.00;;;;;;4975222;28;20502;-73
2023/12/21 08:48:50;;;;;;;1.43;0.40;;;8.20;1.00;;;;;;4992734;28;20522;-71
2023/12/21 08:51:16;;;;;;;1.50;0.60;;;8.20;1.00;;;;;;4992967;28;20196;-72
2023/12/21 08:53:44;;;;;;;1.60;0.50;;;8.20;1.00;;;;;;4992452;28;20176;-72
2023/12/21 08:56:10;;;;;;;1.80;0.60;;;8.20;1.00;;;;;;4993172;28;20414;-69
2023/12/21 08:58:36;;;;;;;2.23;0.80;;;8.30;1.00;;;;;;4992780;28;20474;-72
2023/12/21 09:01:02;;;;;;;1.50;0.50;;;8.30;1.00;;;;;;4992938;28;20235;-72
2023/12/21 09:03:27;;;;;;;1.40;0.40;;;8.20;1.00;;;;;;4993621;28;20434;-72
2023/12/21 09:05:53;;;;;;;1.50;0.50;;;8.30;1.00;;;;;;4993141;28;20430;-73
2023/12/21 09:08:19;;;;;;;1.70;0.60;;;8.30;1.00;;;;;;4992543;28;20292;-72
2023/12/21 09:10:44;;;;;;;2.43;0.60;;;8.30;1.00;;;;;;4992390;28;20219;-72
2023/12/21 09:13:10;;;;;;;1.50;0.50;;;8.30;1.00;;;;;;4993031;28;20419;-73
2023/12/21 09:15:36;;;;;;;1.70;0.60;;;8.30;1.00;;;;;;4992479;28;20223;-72
2023/12/21 09:18:03;;;;;;;1.40;0.40;;;8.30;1.00;;;;;;4992591;28;20207;-72
2023/12/21 09:20:28;;;;;;;1.50;0.40;;;8.30;1.00;;;;;;4991915;28;20450;-72
2023/12/21 09:22:54;;;;;;;1.50;0.50;;;8.30;1.00;;;;;;4992301;28;20803;-72
2023/12/21 09:25:20;;;;;;;1.40;0.40;;;8.30;1.10;;;;;;4992335;28;20179;-72
2023/12/21 09:27:45;;;;;;;3.40;0.63;;;8.30;1.40;;;;;;4992238;28;20564;-72
2023/12/21 09:30:11;;;;;;;2.43;0.40;;;8.30;1.70;;;;;;4991940;28;20200;-73
2023/12/21 09:32:39;;;;;;;2.10;1.00;;;8.30;2.10;;;;;;4992339;28;20255;-72
2023/12/21 09:35:06;;;;;;;1.90;0.87;;;8.30;1.80;;;;;;4992205;28;20466;-72
2023/12/21 09:37:32;;;;;;;1.40;0.40;;;8.30;2.30;;;;;;4992551;28;20418;-72
2023/12/21 09:39:58;;;;;;;2.77;0.60;;;8.30;2.30;;;;;;4991931;28;20526;-72
2023/12/21 09:42:27;;;;;;;1.50;0.50;;;8.30;2.70;;;;;;4992023;28;20467;-72
2023/12/21 09:44:53;;;;;;;1.50;0.60;;;8.20;2.60;;;;;;4974847;28;20217;-72
2023/12/21 09:47:22;;;;;;;1.83;0.53;;;8.20;2.70;;;;;;4992310;28;20457;-72
2023/12/21 09:49:50;;;;;;;4.30;0.70;;;8.30;3.30;;;;;;5000748;28;20407;-73
2023/12/21 09:52:18;;;;;;;1.60;0.60;;;8.30;3.30;;;;;;5011626;28;20511;-73
2023/12/21 09:54:46;;;;;;;1.67;0.70;;;8.30;3.20;;;;;;5009921;28;20426;-73
2023/12/21 09:57:13;;;;;;;1.40;0.50;;;8.40;3.00;;;;;;4993704;28;20419;-73
2023/12/21 09:59:39;;;;;;;1.50;0.50;;;8.40;2.80;;;;;;4975023;28;20427;-73
2023/12/21 10:02:11;;;;;;;1.67;0.80;;;8.40;2.50;;;;;;4974607;28;20793;-73
2023/12/21 10:04:43;;;;;;;1.70;0.63;;;8.40;2.40;;;;;;4992192;28;20179;-72
2023/12/21 10:07:12;;;;;;;1.47;0.50;;;8.50;2.50;;;;;;4994533;28;20466;-73
2023/12/21 10:09:38;;;;;;;1.93;0.60;;;8.50;2.90;;;;;;4995535;28;20481;-72
2023/12/21 10:12:04;;;;;;;3.60;0.90;;;8.50;2.80;;;;;;4995497;28;21018;-69
2023/12/21 10:14:31;;;;;;;2.17;0.57;;;8.50;3.10;;;;;;4995652;28;20179;-72
2023/12/21 10:16:58;;;;;;;1.60;0.57;;;8.40;3.10;;;;;;4995325;28;20506;-73
2023/12/21 10:19:24;;;;;;;1.83;0.67;;;8.50;3.50;;;;;;4995314;28;20430;-74
2023/12/21 10:21:50;;;;;;;2.90;0.77;;;8.60;3.80;;;;;;5008601;28;20449;-73
2023/12/21 10:24:17;;;;;;;1.50;0.50;;;8.60;3.20;;;;;;5015135;28;20251;-73
2023/12/21 10:26:47;;;;;;;1.60;0.60;;;8.60;3.00;;;;;;5013583;28;20516;-73
2023/12/21 10:29:17;;;;;;;1.50;0.50;;;8.60;3.10;;;;;;5014968;28;20426;-73
2023/12/21 10:31:47;;;;;;;1.77;0.60;;;8.60;3.30;;;;;;5014471;28;21028;-73
2023/12/21 10:34:14;;;;;;;1.50;0.40;;;8.70;3.40;;;;;;5001676;28;20462;-73
2023/12/21 10:36:44;;;;;;;1.90;0.57;;;8.70;3.20;;;;;;4985962;28;20419;-71
2023/12/21 10:39:17;;;;;;;2.27;0.80;;;8.70;4.10;;;;;;5013600;28;20516;-71
2023/12/21 10:41:45;;;;;;;1.97;0.80;;;8.80;3.70;;;;;;5014458;28;20441;-70
2023/12/21 10:44:15;;;;;;;1.60;0.57;;;8.80;3.80;;;;;;5014054;28;20418;-71
2023/12/21 10:46:41;;;;;;;2.33;0.70;;;8.80;3.90;;;;;;5014878;28;20411;-71
2023/12/21 10:49:10;;;;;;;1.70;0.67;;;8.80;4.10;;;;;;5013135;28;20423;-70
2023/12/21 10:51:37;;;;;;;2.90;0.93;;;8.80;4.20;;;;;;5014568;28;20435;-71
2023/12/21 10:54:08;;;;;;;1.80;0.70;;;8.90;3.90;;;;;;5013280;28;20411;-71
2023/12/21 10:56:37;;;;;;;1.60;0.50;;;9.10;3.50;;;;;;4996732;28;20423;-71
2023/12/21 10:59:05;;;;;;;1.60;0.57;;;9.10;2.80;;;;;;5014284;28;20477;-71
2023/12/21 11:01:32;;;;;;;1.50;0.60;;;9.10;2.50;;;;;;5014028;28;21043;-72
2023/12/21 11:04:01;;;;;;;5.10;1.73;;;9.20;3.50;;;;;;5014295;28;20415;-72
2023/12/21 11:06:31;;;;;;;2.93;1.20;;;9.20;2.30;;;;;;5014214;28;20704;-69
2023/12/21 11:08:57;;;;;;;2.83;0.93;;;9.20;2.50;;;;;;5014385;28;20448;-70
2023/12/21 11:11:25;;;;;;;3.00;0.60;;;9.20;2.70;;;;;;5014098;28;20434;-70
2023/12/21 11:13:57;;;;;;;1.87;0.77;;;9.20;2.60;;;;;;5014117;28;20855;-70
2023/12/21 11:16:45;;;;;;;2.93;0.83;;;9.10;2.80;;;;;;5015212;28;20785;-70
2023/12/21 11:19:17;;;;;;;2.67;0.60;;;9.00;4.40;;;;;;5013500;28;20415;-70
2023/12/21 11:21:43;;;;;;;1.53;0.50;;;9.00;4.10;;;;;;5013588;28;20478;-70
2023/12/21 11:24:19;;;;;;;2.37;0.80;;;9.00;4.70;;;;;;5013692;28;20457;-71
2023/12/21 11:26:45;;;;;;;1.97;0.90;;;9.00;5.00;;;;;;5013679;28;20854;-70
2023/12/21 11:29:10;;;;;;;1.70;0.60;;;9.00;4.70;;;;;;5013374;28;20422;-71
2023/12/21 11:31:38;;;;;;;1.60;0.50;;;9.00;5.00;;;;;;5013840;28;20206;-71
2023/12/21 11:34:37;;;;;;;1.53;0.57;;;8.90;4.00;;;;;;5013452;28;20196;-70
2023/12/21 11:37:37;;;;;;;1.80;0.60;;;9.00;4.30;;;;;;5006595;28;20434;-70
2023/12/21 11:40:04;;;;;;;1.60;0.67;;;9.00;4.30;;;;;;4991370;28;20961;-69
2023/12/21 11:42:37;;;;;;;1.60;0.60;;;9.00;3.60;;;;;;5013276;28;20961;-72
2023/12/21 11:45:12;;;;;;;1.67;0.50;;;9.10;4.00;;;;;;5013207;28;20442;-72
2023/12/21 11:47:37;;;;;;;2.37;0.80;;;9.00;3.50;;;;;;5013162;28;20493;-70
2023/12/21 11:50:08;;;;;;;1.60;0.70;;;9.00;3.70;;;;;;5013004;28;20765;-69
2023/12/21 11:52:33;;;;;;;1.70;0.50;;;9.00;3.50;;;;;;5009279;28;20187;-72
2023/12/21 11:55:00;;;;;;;1.50;0.50;;;9.00;2.90;;;;;;5010608;28;20427;-74
2023/12/21 11:57:29;;;;;;;1.53;0.60;;;9.10;3.30;;;;;;5013212;28;20717;-72
2023/12/21 12:00:16;;;;;;;1.70;0.50;;;9.10;2.90;;;;;;5011638;28;20843;-73
2023/12/21 12:02:45;;;;;;;1.60;0.50;;;9.10;2.20;;;;;;5012501;28;20431;-72
2023/12/21 12:05:11;;;;;;;1.93;0.60;;;9.10;1.90;;;;;;5012430;28;20996;-73
2023/12/21 12:07:37;;;;;;;1.60;0.60;;;9.10;2.20;;;;;;5012652;28;20455;-73
2023/12/21 12:10:03;;;;;;;3.70;1.60;;;9.10;2.20;;;;;;5012556;28;20861;-73
2023/12/21 12:12:29;;;;;;;1.90;0.70;;;9.10;1.90;;;;;;4995055;28;20181;-73
2023/12/21 12:14:55;;;;;;;1.60;0.60;;;9.10;2.00;;;;;;5012632;28;20798;-73
2023/12/21 12:17:20;;;;;;;1.77;0.60;;;9.10;1.30;;;;;;5012647;28;20427;-73
2023/12/21 12:19:46;;;;;;;2.17;1.00;;;9.20;1.00;;;;;;5012285;28;20293;-73
2023/12/21 12:22:12;;;;;;;1.50;0.60;;;9.20;1.10;;;;;;4995435;28;20191;-73
2023/12/21 12:24:39;;;;;;;3.10;1.90;;;9.20;1.00;;;;;;5012710;28;20194;-74
2023/12/21 12:27:05;;;;;;;2.10;0.83;;;9.20;1.00;;;;;;5012643;28;20207;-73
2023/12/21 12:29:30;;;;;;;1.73;0.60;;;9.20;1.00;;;;;;5012065;28;20794;-73
2023/12/21 12:31:56;;;;;;;2.97;0.80;;;9.20;1.00;;;;;;5012489;28;20223;-73
2023/12/21 12:34:22;;;;;;;1.80;0.63;;;9.30;1.00;;;;;;5012237;28;20196;-73
2023/12/21 12:36:55;;;;;;;2.20;0.90;;;9.20;1.00;;;;;;4994733;28;20229;-73
2023/12/21 12:39:21;;;;;;;1.57;0.60;;;9.30;1.00;;;;;;5012052;28;20514;-73
2023/12/21 12:41:52;;;;;;;1.70;0.70;;;9.30;1.00;;;;;;5012432;28;20813;-73
2023/12/21 12:44:18;;;;;;;1.70;0.80;;;9.30;1.00;;;;;;5012464;28;20430;-73
2023/12/21 12:46:44;;;;;;;1.70;0.60;;;9.40;1.00;;;;;;5012269;28;20778;-73
2023/12/21 12:49:12;;;;;;;1.60;0.70;;;9.40;1.00;;;;;;5011930;28;20207;-73
2023/12/21 12:51:40;;;;;;;1.73;0.60;;;9.40;1.00;;;;;;5012372;28;20430;-73
2023/12/21 12:54:09;;;;;;;1.80;0.57;;;9.40;1.00;;;;;;5012057;28;20455;-73
2023/12/21 12:56:45;;;;;;;2.00;0.50;;;9.40;1.00;;;;;;4994518;28;20957;-72
2023/12/21 12:59:11;;;;;;;3.03;0.80;;;9.40;1.00;;;;;;5012173;28;20945;-72